PDT5821 KPHL-KORF
Flight info
| Callsign | PDT5821 |
|---|---|
| Flight time | 0h 41m |
| Altitude | 24000 |
| Route | OOD TEBEE HAYDO TRPOD T303 OUTLA OUTLA1 |
| Aircraft | E145/M-SDFGIRW/S |
Departure
| Time | 2026-04-21 19:33 |
|---|---|
| Airport | Philadelphia International Airport (KPHL) |
Arrival
| Time | 2026-04-21 20:14 |
|---|---|
| Airport | Norfolk International Airport (KORF) |
| Time | Latitude | Longitude | Altitude | Speed | Heading |
|---|---|---|---|---|---|
| 2026-04-21 19:19 | 39.88061 | -75.23631 | 13 ft | 0 kts | 220° |
| 2026-04-21 19:24 | 39.88062 | -75.23630 | 13 ft | 1 kts | 219° |
| 2026-04-21 19:24 | 39.88074 | -75.23620 | 13 ft | 2 kts | 206° |
| 2026-04-21 19:24 | 39.88088 | -75.23612 | 13 ft | 2 kts | 195° |
| 2026-04-21 19:25 | 39.88102 | -75.23609 | 13 ft | 2 kts | 184° |
| 2026-04-21 19:25 | 39.88117 | -75.23608 | 13 ft | 2 kts | 185° |
| 2026-04-21 19:25 | 39.88123 | -75.23607 | 13 ft | 0 kts | 185° |
| 2026-04-21 19:27 | 39.88123 | -75.23608 | 13 ft | 0 kts | 185° |
| 2026-04-21 19:28 | 39.88112 | -75.23607 | 13 ft | 2 kts | 171° |
| 2026-04-21 19:28 | 39.88094 | -75.23589 | 13 ft | 4 kts | 125° |
| 2026-04-21 19:28 | 39.88080 | -75.23541 | 13 ft | 6 kts | 108° |
| 2026-04-21 19:28 | 39.88044 | -75.23489 | 13 ft | 8 kts | 146° |
| 2026-04-21 19:29 | 39.87983 | -75.23457 | 13 ft | 10 kts | 160° |
| 2026-04-21 19:29 | 39.87907 | -75.23437 | 13 ft | 12 kts | 179° |
| 2026-04-21 19:29 | 39.87815 | -75.23418 | 13 ft | 14 kts | 161° |
| 2026-04-21 19:29 | 39.87711 | -75.23365 | 12 ft | 17 kts | 159° |
| 2026-04-21 19:30 | 39.87592 | -75.23305 | 12 ft | 19 kts | 159° |
| 2026-04-21 19:30 | 39.87468 | -75.23245 | 13 ft | 17 kts | 159° |
| 2026-04-21 19:30 | 39.87349 | -75.23186 | 14 ft | 18 kts | 160° |
| 2026-04-21 19:30 | 39.87223 | -75.23124 | 11 ft | 20 kts | 160° |
| 2026-04-21 19:31 | 39.87145 | -75.23112 | 12 ft | 8 kts | 227° |
| 2026-04-21 19:31 | 39.87102 | -75.23179 | 13 ft | 10 kts | 220° |
| 2026-04-21 19:31 | 39.87054 | -75.23258 | 13 ft | 12 kts | 242° |
| 2026-04-21 19:31 | 39.87024 | -75.23370 | 12 ft | 14 kts | 257° |
| 2026-04-21 19:32 | 39.86955 | -75.23414 | 12 ft | 13 kts | 164° |
| 2026-04-21 19:32 | 39.86896 | -75.23430 | 12 ft | 7 kts | 256° |
| 2026-04-21 19:32 | 39.86882 | -75.23506 | 12 ft | 10 kts | 257° |
| 2026-04-21 19:32 | 39.86837 | -75.23736 | 13 ft | 57 kts | 256° |
| 2026-04-21 19:33 | 39.86742 | -75.24209 | 16 ft | 101 kts | 256° |
| 2026-04-21 19:33 | 39.86460 | -75.25700 | 259 ft | 141 kts | 257° |
| 2026-04-21 19:33 | 39.86253 | -75.27006 | 771 ft | 152 kts | 260° |
| 2026-04-21 19:33 | 39.86040 | -75.28368 | 1415 ft | 156 kts | 252° |
| 2026-04-21 19:34 | 39.85428 | -75.29533 | 1942 ft | 166 kts | 216° |
| 2026-04-21 19:34 | 39.84294 | -75.29977 | 2367 ft | 183 kts | 189° |
| 2026-04-21 19:34 | 39.82938 | -75.30174 | 2570 ft | 212 kts | 188° |
| 2026-04-21 19:34 | 39.81339 | -75.30343 | 2823 ft | 243 kts | 181° |
| 2026-04-21 19:35 | 39.79630 | -75.30327 | 3504 ft | 250 kts | 182° |
| 2026-04-21 19:35 | 39.76114 | -75.30321 | 5028 ft | 258 kts | 182° |
| 2026-04-21 19:35 | 39.74290 | -75.30318 | 5754 ft | 264 kts | 183° |
| 2026-04-21 19:36 | 39.72441 | -75.30316 | 6469 ft | 268 kts | 183° |
| 2026-04-21 19:36 | 39.70556 | -75.30315 | 7117 ft | 275 kts | 184° |
| 2026-04-21 19:36 | 39.68609 | -75.30312 | 7762 ft | 282 kts | 184° |
| 2026-04-21 19:36 | 39.66637 | -75.30309 | 8400 ft | 287 kts | 184° |
| 2026-04-21 19:37 | 39.64620 | -75.30307 | 9019 ft | 293 kts | 185° |
| 2026-04-21 19:37 | 39.62565 | -75.30481 | 9626 ft | 295 kts | 195° |
| 2026-04-21 19:37 | 39.60531 | -75.30862 | 10238 ft | 301 kts | 194° |
| 2026-04-21 19:37 | 39.58435 | -75.31242 | 10883 ft | 304 kts | 194° |
| 2026-04-21 19:38 | 39.56337 | -75.31623 | 11552 ft | 307 kts | 194° |
| 2026-04-21 19:38 | 39.54227 | -75.32005 | 12170 ft | 311 kts | 194° |
| 2026-04-21 19:38 | 39.52788 | -75.32266 | 12438 ft | 319 kts | 194° |
| 2026-04-21 19:38 | 39.49692 | -75.32893 | 12541 ft | 346 kts | 199° |
| 2026-04-21 19:39 | 39.47273 | -75.33354 | 13041 ft | 356 kts | 188° |
| 2026-04-21 19:39 | 39.44823 | -75.33715 | 13637 ft | 356 kts | 193° |
| 2026-04-21 19:39 | 39.42366 | -75.34151 | 14180 ft | 359 kts | 193° |
| 2026-04-21 19:39 | 39.39855 | -75.34603 | 14732 ft | 363 kts | 193° |
| 2026-04-21 19:40 | 39.37363 | -75.35053 | 15264 ft | 366 kts | 193° |
| 2026-04-21 19:40 | 39.34820 | -75.35511 | 15817 ft | 368 kts | 193° |
| 2026-04-21 19:40 | 39.32258 | -75.35973 | 16356 ft | 370 kts | 193° |
| 2026-04-21 19:40 | 39.29698 | -75.36434 | 16819 ft | 374 kts | 193° |
| 2026-04-21 19:41 | 39.27063 | -75.36908 | 17307 ft | 378 kts | 193° |
| 2026-04-21 19:41 | 39.24483 | -75.37371 | 17819 ft | 379 kts | 194° |
| 2026-04-21 19:41 | 39.21849 | -75.37845 | 18257 ft | 383 kts | 194° |
| 2026-04-21 19:41 | 39.19223 | -75.38461 | 18805 ft | 379 kts | 199° |
| 2026-04-21 19:42 | 39.16592 | -75.38892 | 19377 ft | 382 kts | 191° |
| 2026-04-21 19:42 | 39.13954 | -75.39292 | 19906 ft | 381 kts | 193° |
| 2026-04-21 19:42 | 39.11332 | -75.39736 | 20448 ft | 380 kts | 193° |
| 2026-04-21 19:42 | 39.08706 | -75.40196 | 21000 ft | 379 kts | 194° |
| 2026-04-21 19:43 | 39.06115 | -75.40655 | 21497 ft | 380 kts | 194° |
| 2026-04-21 19:43 | 39.03469 | -75.41125 | 22025 ft | 379 kts | 194° |
| 2026-04-21 19:43 | 39.00848 | -75.41591 | 22534 ft | 379 kts | 194° |
| 2026-04-21 19:43 | 38.98263 | -75.42050 | 23051 ft | 378 kts | 194° |
| 2026-04-21 19:44 | 38.95651 | -75.42514 | 23548 ft | 378 kts | 194° |
| 2026-04-21 19:44 | 38.93038 | -75.42978 | 24032 ft | 378 kts | 194° |
| 2026-04-21 19:44 | 38.90401 | -75.43446 | 24315 ft | 383 kts | 193° |
| 2026-04-21 19:44 | 38.87743 | -75.43916 | 24307 ft | 374 kts | 194° |
| 2026-04-21 19:45 | 38.85206 | -75.44364 | 24314 ft | 368 kts | 194° |
| 2026-04-21 19:45 | 38.82664 | -75.44814 | 24314 ft | 366 kts | 194° |
| 2026-04-21 19:45 | 38.80145 | -75.45261 | 24322 ft | 366 kts | 194° |
| 2026-04-21 19:45 | 38.77600 | -75.45711 | 24328 ft | 368 kts | 194° |
| 2026-04-21 19:46 | 38.75063 | -75.46159 | 24331 ft | 372 kts | 194° |
| 2026-04-21 19:46 | 38.72459 | -75.46619 | 24332 ft | 376 kts | 194° |
| 2026-04-21 19:46 | 38.69859 | -75.47077 | 24329 ft | 379 kts | 194° |
| 2026-04-21 19:46 | 38.67241 | -75.47539 | 24330 ft | 381 kts | 194° |
| 2026-04-21 19:47 | 38.64611 | -75.48001 | 24334 ft | 383 kts | 193° |
| 2026-04-21 19:47 | 38.61989 | -75.48463 | 24336 ft | 385 kts | 193° |
| 2026-04-21 19:47 | 38.59326 | -75.48930 | 24337 ft | 386 kts | 193° |
| 2026-04-21 19:47 | 38.56658 | -75.49400 | 24336 ft | 388 kts | 193° |
| 2026-04-21 19:48 | 38.53976 | -75.49869 | 24337 ft | 389 kts | 193° |
| 2026-04-21 19:48 | 38.51274 | -75.50343 | 24337 ft | 390 kts | 193° |
| 2026-04-21 19:48 | 38.48590 | -75.50814 | 24340 ft | 391 kts | 193° |
| 2026-04-21 19:48 | 38.45906 | -75.51285 | 24334 ft | 392 kts | 193° |
| 2026-04-21 19:49 | 38.43205 | -75.51756 | 24335 ft | 393 kts | 193° |
| 2026-04-21 19:49 | 38.40493 | -75.52231 | 24334 ft | 393 kts | 193° |
| 2026-04-21 19:49 | 38.37793 | -75.52702 | 24339 ft | 393 kts | 193° |
| 2026-04-21 19:49 | 38.35064 | -75.53182 | 24341 ft | 392 kts | 194° |
| 2026-04-21 19:50 | 38.33333 | -75.53733 | 24334 ft | 383 kts | 207° |
| 2026-04-21 19:50 | 38.30119 | -75.55514 | 24338 ft | 380 kts | 211° |
| 2026-04-21 19:50 | 38.27686 | -75.56882 | 24338 ft | 379 kts | 211° |
| 2026-04-21 19:50 | 38.25264 | -75.58245 | 24332 ft | 378 kts | 211° |
| 2026-04-21 19:51 | 38.22870 | -75.59592 | 24335 ft | 377 kts | 211° |
| 2026-04-21 19:51 | 38.20478 | -75.60937 | 24336 ft | 375 kts | 211° |
| 2026-04-21 19:51 | 38.18105 | -75.62270 | 24338 ft | 375 kts | 211° |
| 2026-04-21 19:51 | 38.15731 | -75.63603 | 24337 ft | 374 kts | 211° |
| 2026-04-21 19:52 | 38.13330 | -75.64950 | 24333 ft | 374 kts | 211° |
| 2026-04-21 19:52 | 38.10945 | -75.66287 | 24338 ft | 373 kts | 210° |
| 2026-04-21 19:52 | 38.08577 | -75.67614 | 24335 ft | 373 kts | 210° |
| 2026-04-21 19:52 | 38.06181 | -75.68956 | 24329 ft | 373 kts | 210° |
| 2026-04-21 19:53 | 38.03800 | -75.70288 | 24333 ft | 372 kts | 210° |
| 2026-04-21 19:53 | 38.01443 | -75.71606 | 24332 ft | 372 kts | 211° |
| 2026-04-21 19:53 | 37.99077 | -75.72928 | 24332 ft | 372 kts | 210° |
| 2026-04-21 19:53 | 37.96749 | -75.74307 | 24332 ft | 370 kts | 213° |
| 2026-04-21 19:54 | 37.94431 | -75.75729 | 24335 ft | 370 kts | 213° |
| 2026-04-21 19:54 | 37.92100 | -75.77156 | 24336 ft | 370 kts | 212° |
| 2026-04-21 19:54 | 37.89763 | -75.78585 | 24330 ft | 370 kts | 212° |
| 2026-04-21 19:54 | 37.87450 | -75.79998 | 24321 ft | 370 kts | 212° |
| 2026-04-21 19:55 | 37.85123 | -75.81419 | 24327 ft | 369 kts | 213° |
| 2026-04-21 19:55 | 37.82829 | -75.82819 | 24311 ft | 368 kts | 212° |
| 2026-04-21 19:55 | 37.80518 | -75.84229 | 23889 ft | 368 kts | 213° |
| 2026-04-21 19:55 | 37.78221 | -75.85628 | 23423 ft | 364 kts | 212° |
| 2026-04-21 19:56 | 37.75964 | -75.87001 | 22966 ft | 359 kts | 213° |
| 2026-04-21 19:56 | 37.73735 | -75.88357 | 22513 ft | 355 kts | 213° |
| 2026-04-21 19:56 | 37.71499 | -75.89717 | 22055 ft | 351 kts | 213° |
| 2026-04-21 19:56 | 37.69334 | -75.91033 | 21611 ft | 348 kts | 212° |
| 2026-04-21 19:57 | 37.67157 | -75.92355 | 21171 ft | 347 kts | 213° |
| 2026-04-21 19:57 | 37.64985 | -75.93675 | 20729 ft | 348 kts | 212° |
| 2026-04-21 19:57 | 37.62787 | -75.95008 | 20276 ft | 350 kts | 212° |
| 2026-04-21 19:57 | 37.60544 | -75.96234 | 19824 ft | 357 kts | 201° |
| 2026-04-21 19:58 | 37.58078 | -75.96696 | 19426 ft | 365 kts | 190° |
| 2026-04-21 19:58 | 37.55533 | -75.97025 | 18983 ft | 368 kts | 190° |
| 2026-04-21 19:58 | 37.52961 | -75.97363 | 18544 ft | 371 kts | 190° |
| 2026-04-21 19:58 | 37.50409 | -75.97704 | 18116 ft | 373 kts | 190° |
| 2026-04-21 19:59 | 37.47825 | -75.98051 | 17667 ft | 374 kts | 190° |
| 2026-04-21 19:59 | 37.45227 | -75.98402 | 17214 ft | 375 kts | 190° |
| 2026-04-21 19:59 | 37.42638 | -75.98751 | 16766 ft | 376 kts | 190° |
| 2026-04-21 19:59 | 37.40005 | -75.99106 | 16317 ft | 376 kts | 190° |
| 2026-04-21 20:00 | 37.37436 | -75.99452 | 15895 ft | 376 kts | 189° |
| 2026-04-21 20:00 | 37.34797 | -75.99751 | 15434 ft | 378 kts | 183° |
| 2026-04-21 20:00 | 37.32232 | -75.99376 | 15018 ft | 373 kts | 172° |
| 2026-04-21 20:00 | 37.29667 | -75.98873 | 14563 ft | 364 kts | 173° |
| 2026-04-21 20:01 | 37.27196 | -75.98390 | 14103 ft | 357 kts | 173° |
| 2026-04-21 20:01 | 37.24790 | -75.97876 | 13658 ft | 350 kts | 171° |
| 2026-04-21 20:01 | 37.22401 | -75.97294 | 13216 ft | 344 kts | 170° |
| 2026-04-21 20:01 | 37.20078 | -75.96730 | 12780 ft | 339 kts | 171° |
| 2026-04-21 20:02 | 37.17767 | -75.96169 | 12331 ft | 335 kts | 171° |
| 2026-04-21 20:02 | 37.15487 | -75.95616 | 11853 ft | 331 kts | 171° |
| 2026-04-21 20:02 | 37.13241 | -75.95072 | 11392 ft | 327 kts | 171° |
| 2026-04-21 20:02 | 37.11024 | -75.94535 | 10896 ft | 324 kts | 170° |
| 2026-04-21 20:03 | 37.08814 | -75.93999 | 10449 ft | 321 kts | 171° |
| 2026-04-21 20:03 | 37.06675 | -75.93481 | 9946 ft | 307 kts | 170° |
| 2026-04-21 20:03 | 37.04626 | -75.93316 | 9505 ft | 287 kts | 195° |
| 2026-04-21 20:03 | 37.02787 | -75.94154 | 9140 ft | 282 kts | 210° |
| 2026-04-21 20:04 | 37.01001 | -75.95287 | 8711 ft | 291 kts | 218° |
| 2026-04-21 20:04 | 36.99296 | -75.96699 | 8241 ft | 292 kts | 219° |
| 2026-04-21 20:04 | 36.97641 | -75.98089 | 7854 ft | 285 kts | 219° |
| 2026-04-21 20:04 | 36.96021 | -75.99455 | 7513 ft | 280 kts | 219° |
| 2026-04-21 20:05 | 36.94416 | -76.00809 | 7165 ft | 277 kts | 219° |
| 2026-04-21 20:05 | 36.92830 | -76.02155 | 6818 ft | 273 kts | 219° |
| 2026-04-21 20:05 | 36.91268 | -76.03490 | 6472 ft | 270 kts | 219° |
| 2026-04-21 20:05 | 36.89715 | -76.04821 | 6120 ft | 267 kts | 219° |
| 2026-04-21 20:06 | 36.88202 | -76.06131 | 5705 ft | 256 kts | 219° |
| 2026-04-21 20:06 | 36.86800 | -76.07359 | 5368 ft | 241 kts | 219° |
| 2026-04-21 20:06 | 36.85460 | -76.08538 | 5095 ft | 232 kts | 219° |
| 2026-04-21 20:06 | 36.84145 | -76.09705 | 4794 ft | 231 kts | 219° |
| 2026-04-21 20:07 | 36.82849 | -76.10877 | 4493 ft | 231 kts | 219° |
| 2026-04-21 20:07 | 36.81541 | -76.12071 | 4189 ft | 231 kts | 219° |
| 2026-04-21 20:07 | 36.80253 | -76.13258 | 3888 ft | 230 kts | 219° |
| 2026-04-21 20:07 | 36.78970 | -76.14445 | 3588 ft | 230 kts | 219° |
| 2026-04-21 20:08 | 36.77685 | -76.15645 | 3270 ft | 228 kts | 219° |
| 2026-04-21 20:08 | 36.76447 | -76.16811 | 2923 ft | 216 kts | 219° |
| 2026-04-21 20:08 | 36.75279 | -76.17920 | 2606 ft | 206 kts | 219° |
| 2026-04-21 20:08 | 36.74165 | -76.18986 | 2308 ft | 198 kts | 219° |
| 2026-04-21 20:09 | 36.73145 | -76.20090 | 2083 ft | 194 kts | 236° |
| 2026-04-21 20:09 | 36.72826 | -76.21641 | 1984 ft | 182 kts | 282° |
| 2026-04-21 20:09 | 36.73313 | -76.23027 | 1970 ft | 176 kts | 300° |
| 2026-04-21 20:09 | 36.73925 | -76.24365 | 1999 ft | 173 kts | 300° |
| 2026-04-21 20:10 | 36.74510 | -76.25642 | 1952 ft | 165 kts | 300° |
| 2026-04-21 20:10 | 36.75118 | -76.26811 | 1943 ft | 157 kts | 317° |
| 2026-04-21 20:10 | 36.76093 | -76.27294 | 1972 ft | 153 kts | 357° |
| 2026-04-21 20:10 | 36.77201 | -76.27280 | 1976 ft | 162 kts | 360° |
| 2026-04-21 20:11 | 36.78347 | -76.27254 | 1996 ft | 168 kts | 359° |
| 2026-04-21 20:11 | 36.79548 | -76.27222 | 2000 ft | 174 kts | 360° |
| 2026-04-21 20:11 | 36.80785 | -76.27193 | 1998 ft | 177 kts | 360° |
| 2026-04-21 20:11 | 36.82017 | -76.27104 | 1838 ft | 182 kts | 14° |
| 2026-04-21 20:12 | 36.83046 | -76.26250 | 1639 ft | 178 kts | 45° |
| 2026-04-21 20:12 | 36.83905 | -76.25319 | 1604 ft | 146 kts | 37° |
| 2026-04-21 20:12 | 36.84668 | -76.24577 | 1586 ft | 132 kts | 36° |
| 2026-04-21 20:12 | 36.85387 | -76.23885 | 1295 ft | 127 kts | 35° |
| 2026-04-21 20:13 | 36.86090 | -76.23254 | 907 ft | 123 kts | 36° |
| 2026-04-21 20:13 | 36.86789 | -76.22591 | 612 ft | 128 kts | 38° |
| 2026-04-21 20:13 | 36.87479 | -76.21914 | 390 ft | 126 kts | 39° |
| 2026-04-21 20:13 | 36.88171 | -76.21240 | 226 ft | 126 kts | 39° |
| 2026-04-21 20:14 | 36.88850 | -76.20578 | 68 ft | 120 kts | 40° |
| 2026-04-21 20:14 | 36.89438 | -76.20007 | 28 ft | 72 kts | 37° |
| 2026-04-21 20:14 | 36.89728 | -76.19728 | 28 ft | 33 kts | 38° |
| 2026-04-21 20:14 | 36.89896 | -76.19565 | 28 ft | 27 kts | 37° |
| 2026-04-21 20:15 | 36.90017 | -76.19521 | 28 ft | 17 kts | 316° |
| 2026-04-21 20:15 | 36.90058 | -76.19600 | 28 ft | 10 kts | 270° |
| 2026-04-21 20:15 | 36.90011 | -76.19673 | 28 ft | 12 kts | 220° |
| 2026-04-21 20:15 | 36.89935 | -76.19746 | 28 ft | 14 kts | 218° |
| 2026-04-21 20:16 | 36.89847 | -76.19832 | 28 ft | 17 kts | 218° |
| 2026-04-21 20:16 | 36.89754 | -76.19922 | 28 ft | 14 kts | 218° |
| 2026-04-21 20:16 | 36.89753 | -76.20036 | 28 ft | 15 kts | 293° |
| 2026-04-21 20:16 | 36.89800 | -76.20119 | 28 ft | 8 kts | 348° |
| 2026-04-21 20:17 | 36.89840 | -76.20123 | 28 ft | 4 kts | 355° |
| 2026-04-21 20:17 | 36.89857 | -76.20126 | 28 ft | 0 kts | 354° |